sensor_id;sensor_type;location;lat;lon;timestamp;P1;durP1;ratioP1;P2;durP2;ratioP2
11238;SDS011;5677;48.488;13.436;2023-02-28T00:00:39;3.70;;;2.30;;
11238;SDS011;5677;48.488;13.436;2023-02-28T00:03:06;4.17;;;2.50;;
11238;SDS011;5677;48.488;13.436;2023-02-28T00:05:32;3.33;;;2.00;;
11238;SDS011;5677;48.488;13.436;2023-02-28T00:08:00;3.10;;;2.23;;
11238;SDS011;5677;48.488;13.436;2023-02-28T00:10:28;2.70;;;2.20;;
11238;SDS011;5677;48.488;13.436;2023-02-28T00:12:58;5.33;;;2.23;;
11238;SDS011;5677;48.488;13.436;2023-02-28T00:15:26;2.80;;;2.10;;
11238;SDS011;5677;48.488;13.436;2023-02-28T00:17:53;4.00;;;2.60;;
11238;SDS011;5677;48.488;13.436;2023-02-28T00:20:21;4.50;;;2.50;;
11238;SDS011;5677;48.488;13.436;2023-02-28T00:22:49;4.03;;;2.40;;
11238;SDS011;5677;48.488;13.436;2023-02-28T00:25:20;2.97;;;1.97;;
11238;SDS011;5677;48.488;13.436;2023-02-28T00:27:48;4.90;;;2.60;;
11238;SDS011;5677;48.488;13.436;2023-02-28T00:30:15;2.50;;;2.20;;
11238;SDS011;5677;48.488;13.436;2023-02-28T00:32:43;3.93;;;2.27;;
11238;SDS011;5677;48.488;13.436;2023-02-28T00:35:10;2.13;;;1.93;;
11238;SDS011;5677;48.488;13.436;2023-02-28T00:37:38;3.13;;;2.17;;
11238;SDS011;5677;48.488;13.436;2023-02-28T00:40:05;3.57;;;2.27;;
11238;SDS011;5677;48.488;13.436;2023-02-28T00:42:36;2.27;;;2.07;;
11238;SDS011;5677;48.488;13.436;2023-02-28T00:45:03;3.43;;;2.30;;
11238;SDS011;5677;48.488;13.436;2023-02-28T00:47:30;3.67;;;2.20;;
11238;SDS011;5677;48.488;13.436;2023-02-28T00:49:57;3.33;;;2.60;;
11238;SDS011;5677;48.488;13.436;2023-02-28T00:52:24;5.73;;;2.03;;
11238;SDS011;5677;48.488;13.436;2023-02-28T00:54:52;2.80;;;2.10;;
11238;SDS011;5677;48.488;13.436;2023-02-28T00:57:18;2.80;;;2.07;;
11238;SDS011;5677;48.488;13.436;2023-02-28T00:59:47;2.87;;;2.07;;
11238;SDS011;5677;48.488;13.436;2023-02-28T01:02:14;3.63;;;2.30;;
11238;SDS011;5677;48.488;13.436;2023-02-28T01:04:41;4.40;;;2.50;;
11238;SDS011;5677;48.488;13.436;2023-02-28T01:07:07;3.63;;;2.30;;
11238;SDS011;5677;48.488;13.436;2023-02-28T01:09:34;3.93;;;2.30;;
11238;SDS011;5677;48.488;13.436;2023-02-28T01:12:01;2.53;;;2.10;;
11238;SDS011;5677;48.488;13.436;2023-02-28T01:14:28;4.77;;;2.60;;
11238;SDS011;5677;48.488;13.436;2023-02-28T01:16:56;3.13;;;2.30;;
11238;SDS011;5677;48.488;13.436;2023-02-28T01:19:22;1.90;;;1.80;;
11238;SDS011;5677;48.488;13.436;2023-02-28T01:21:49;3.67;;;2.30;;
11238;SDS011;5677;48.488;13.436;2023-02-28T01:24:16;3.53;;;2.60;;
11238;SDS011;5677;48.488;13.436;2023-02-28T01:26:43;3.13;;;1.90;;
11238;SDS011;5677;48.488;13.436;2023-02-28T01:29:10;2.57;;;2.20;;
11238;SDS011;5677;48.488;13.436;2023-02-28T01:31:37;3.47;;;2.20;;
11238;SDS011;5677;48.488;13.436;2023-02-28T01:34:05;2.70;;;2.20;;
11238;SDS011;5677;48.488;13.436;2023-02-28T01:36:32;4.00;;;2.63;;
11238;SDS011;5677;48.488;13.436;2023-02-28T01:38:58;2.57;;;2.03;;
11238;SDS011;5677;48.488;13.436;2023-02-28T01:41:26;3.80;;;2.23;;
11238;SDS011;5677;48.488;13.436;2023-02-28T01:43:55;3.00;;;2.27;;
11238;SDS011;5677;48.488;13.436;2023-02-28T01:46:29;2.87;;;2.10;;
11238;SDS011;5677;48.488;13.436;2023-02-28T01:48:58;2.77;;;2.27;;
11238;SDS011;5677;48.488;13.436;2023-02-28T01:51:32;2.50;;;2.20;;
11238;SDS011;5677;48.488;13.436;2023-02-28T01:54:03;3.27;;;2.40;;
11238;SDS011;5677;48.488;13.436;2023-02-28T01:56:38;3.13;;;1.90;;
11238;SDS011;5677;48.488;13.436;2023-02-28T01:59:12;2.87;;;2.13;;
11238;SDS011;5677;48.488;13.436;2023-02-28T02:01:43;4.97;;;2.40;;
11238;SDS011;5677;48.488;13.436;2023-02-28T02:04:10;2.90;;;2.30;;
11238;SDS011;5677;48.488;13.436;2023-02-28T02:06:39;3.47;;;2.40;;
11238;SDS011;5677;48.488;13.436;2023-02-28T02:09:09;2.50;;;2.10;;
11238;SDS011;5677;48.488;13.436;2023-02-28T02:11:37;3.23;;;2.17;;
11238;SDS011;5677;48.488;13.436;2023-02-28T02:14:19;2.93;;;2.53;;
11238;SDS011;5677;48.488;13.436;2023-02-28T02:17:02;2.97;;;2.30;;
11238;SDS011;5677;48.488;13.436;2023-02-28T02:19:46;6.03;;;2.53;;
11238;SDS011;5677;48.488;13.436;2023-02-28T02:22:55;2.77;;;2.03;;
11238;SDS011;5677;48.488;13.436;2023-02-28T02:25:44;2.80;;;2.10;;
11238;SDS011;5677;48.488;13.436;2023-02-28T02:28:38;4.27;;;2.03;;
11238;SDS011;5677;48.488;13.436;2023-02-28T02:31:48;3.53;;;2.40;;
11238;SDS011;5677;48.488;13.436;2023-02-28T02:34:38;2.97;;;2.07;;
11238;SDS011;5677;48.488;13.436;2023-02-28T02:37:15;3.70;;;2.60;;
11238;SDS011;5677;48.488;13.436;2023-02-28T02:39:54;2.60;;;2.17;;
11238;SDS011;5677;48.488;13.436;2023-02-28T02:42:27;3.23;;;2.33;;
11238;SDS011;5677;48.488;13.436;2023-02-28T02:44:58;3.20;;;2.27;;
11238;SDS011;5677;48.488;13.436;2023-02-28T02:47:28;3.53;;;2.40;;
11238;SDS011;5677;48.488;13.436;2023-02-28T02:49:59;2.87;;;2.30;;
11238;SDS011;5677;48.488;13.436;2023-02-28T02:52:32;4.93;;;2.73;;
11238;SDS011;5677;48.488;13.436;2023-02-28T02:55:03;4.57;;;2.37;;
11238;SDS011;5677;48.488;13.436;2023-02-28T02:57:33;2.90;;;2.27;;
11238;SDS011;5677;48.488;13.436;2023-02-28T03:00:03;2.97;;;2.37;;
11238;SDS011;5677;48.488;13.436;2023-02-28T03:02:33;2.30;;;2.10;;
11238;SDS011;5677;48.488;13.436;2023-02-28T03:05:04;3.27;;;2.30;;
11238;SDS011;5677;48.488;13.436;2023-02-28T03:07:34;2.70;;;2.03;;
11238;SDS011;5677;48.488;13.436;2023-02-28T03:10:01;4.00;;;2.33;;
11238;SDS011;5677;48.488;13.436;2023-02-28T03:12:44;3.17;;;2.20;;
11238;SDS011;5677;48.488;13.436;2023-02-28T03:15:19;2.30;;;2.10;;
11238;SDS011;5677;48.488;13.436;2023-02-28T03:17:55;2.70;;;2.10;;
11238;SDS011;5677;48.488;13.436;2023-02-28T03:20:37;5.87;;;2.27;;
11238;SDS011;5677;48.488;13.436;2023-02-28T03:23:09;2.87;;;2.10;;
11238;SDS011;5677;48.488;13.436;2023-02-28T03:25:46;3.23;;;2.50;;
11238;SDS011;5677;48.488;13.436;2023-02-28T03:28:23;2.80;;;2.40;;
11238;SDS011;5677;48.488;13.436;2023-02-28T03:30:58;2.30;;;2.07;;
11238;SDS011;5677;48.488;13.436;2023-02-28T03:33:30;2.00;;;1.80;;
11238;SDS011;5677;48.488;13.436;2023-02-28T03:36:03;2.47;;;2.27;;
11238;SDS011;5677;48.488;13.436;2023-02-28T03:38:33;3.33;;;2.30;;
11238;SDS011;5677;48.488;13.436;2023-02-28T03:41:04;3.30;;;2.30;;
11238;SDS011;5677;48.488;13.436;2023-02-28T03:43:35;3.70;;;1.90;;
11238;SDS011;5677;48.488;13.436;2023-02-28T03:46:07;2.27;;;2.07;;
11238;SDS011;5677;48.488;13.436;2023-02-28T03:48:38;3.07;;;2.30;;
11238;SDS011;5677;48.488;13.436;2023-02-28T03:51:10;2.33;;;2.07;;
11238;SDS011;5677;48.488;13.436;2023-02-28T03:53:42;2.23;;;2.03;;
11238;SDS011;5677;48.488;13.436;2023-02-28T03:56:14;3.70;;;2.60;;
11238;SDS011;5677;48.488;13.436;2023-02-28T03:58:46;2.67;;;2.27;;
11238;SDS011;5677;48.488;13.436;2023-02-28T04:01:18;2.73;;;1.90;;
11238;SDS011;5677;48.488;13.436;2023-02-28T04:03:49;3.23;;;2.30;;
11238;SDS011;5677;48.488;13.436;2023-02-28T04:06:19;2.27;;;2.07;;
11238;SDS011;5677;48.488;13.436;2023-02-28T04:08:47;4.17;;;2.50;;
11238;SDS011;5677;48.488;13.436;2023-02-28T04:11:18;2.27;;;2.00;;
11238;SDS011;5677;48.488;13.436;2023-02-28T04:13:49;2.80;;;2.23;;
11238;SDS011;5677;48.488;13.436;2023-02-28T04:16:17;2.40;;;2.20;;
11238;SDS011;5677;48.488;13.436;2023-02-28T04:18:44;4.17;;;2.17;;
11238;SDS011;5677;48.488;13.436;2023-02-28T04:21:11;3.07;;;2.10;;
11238;SDS011;5677;48.488;13.436;2023-02-28T04:23:40;2.40;;;2.00;;
11238;SDS011;5677;48.488;13.436;2023-02-28T04:26:07;3.80;;;2.60;;
11238;SDS011;5677;48.488;13.436;2023-02-28T04:28:33;3.23;;;2.60;;
11238;SDS011;5677;48.488;13.436;2023-02-28T04:31:01;2.23;;;1.90;;
11238;SDS011;5677;48.488;13.436;2023-02-28T04:33:30;3.33;;;2.20;;
11238;SDS011;5677;48.488;13.436;2023-02-28T04:35:58;3.97;;;2.30;;
11238;SDS011;5677;48.488;13.436;2023-02-28T04:38:27;2.43;;;2.23;;
11238;SDS011;5677;48.488;13.436;2023-02-28T04:40:57;5.03;;;2.60;;
11238;SDS011;5677;48.488;13.436;2023-02-28T04:43:25;3.73;;;2.73;;
11238;SDS011;5677;48.488;13.436;2023-02-28T04:45:52;5.57;;;2.50;;
11238;SDS011;5677;48.488;13.436;2023-02-28T04:48:21;3.20;;;2.43;;
11238;SDS011;5677;48.488;13.436;2023-02-28T04:50:48;3.10;;;2.30;;
11238;SDS011;5677;48.488;13.436;2023-02-28T04:53:15;2.60;;;2.20;;
11238;SDS011;5677;48.488;13.436;2023-02-28T04:55:42;2.87;;;2.57;;
11238;SDS011;5677;48.488;13.436;2023-02-28T04:58:10;3.70;;;2.40;;
11238;SDS011;5677;48.488;13.436;2023-02-28T05:00:37;2.90;;;2.00;;
11238;SDS011;5677;48.488;13.436;2023-02-28T05:03:04;3.77;;;2.53;;
11238;SDS011;5677;48.488;13.436;2023-02-28T05:05:31;3.63;;;2.67;;
11238;SDS011;5677;48.488;13.436;2023-02-28T05:07:58;3.60;;;2.00;;
11238;SDS011;5677;48.488;13.436;2023-02-28T05:10:24;3.17;;;2.40;;
11238;SDS011;5677;48.488;13.436;2023-02-28T05:12:51;2.27;;;1.90;;
11238;SDS011;5677;48.488;13.436;2023-02-28T05:15:19;2.57;;;2.27;;
11238;SDS011;5677;48.488;13.436;2023-02-28T05:17:46;2.80;;;2.33;;
11238;SDS011;5677;48.488;13.436;2023-02-28T05:20:13;2.80;;;2.30;;
11238;SDS011;5677;48.488;13.436;2023-02-28T05:22:39;3.20;;;2.23;;
11238;SDS011;5677;48.488;13.436;2023-02-28T05:25:08;2.63;;;2.30;;
11238;SDS011;5677;48.488;13.436;2023-02-28T05:27:37;2.53;;;2.30;;
11238;SDS011;5677;48.488;13.436;2023-02-28T05:30:04;4.17;;;2.70;;
11238;SDS011;5677;48.488;13.436;2023-02-28T05:32:36;4.17;;;2.40;;
11238;SDS011;5677;48.488;13.436;2023-02-28T05:35:03;2.83;;;2.10;;
11238;SDS011;5677;48.488;13.436;2023-02-28T05:37:31;2.73;;;2.00;;
11238;SDS011;5677;48.488;13.436;2023-02-28T05:39:57;5.77;;;2.57;;
11238;SDS011;5677;48.488;13.436;2023-02-28T05:42:24;3.67;;;2.70;;
11238;SDS011;5677;48.488;13.436;2023-02-28T05:44:51;4.43;;;2.37;;
11238;SDS011;5677;48.488;13.436;2023-02-28T05:47:18;5.03;;;2.40;;
11238;SDS011;5677;48.488;13.436;2023-02-28T05:49:46;5.73;;;2.30;;
11238;SDS011;5677;48.488;13.436;2023-02-28T05:52:12;6.63;;;2.77;;
11238;SDS011;5677;48.488;13.436;2023-02-28T05:54:40;2.77;;;2.20;;
11238;SDS011;5677;48.488;13.436;2023-02-28T05:57:07;2.93;;;2.37;;
11238;SDS011;5677;48.488;13.436;2023-02-28T05:59:34;3.10;;;2.30;;
11238;SDS011;5677;48.488;13.436;2023-02-28T06:02:04;4.23;;;2.57;;
11238;SDS011;5677;48.488;13.436;2023-02-28T06:04:31;5.07;;;2.80;;
11238;SDS011;5677;48.488;13.436;2023-02-28T06:07:00;4.20;;;2.83;;
11238;SDS011;5677;48.488;13.436;2023-02-28T06:09:26;2.97;;;2.67;;
11238;SDS011;5677;48.488;13.436;2023-02-28T06:11:54;4.50;;;3.13;;
11238;SDS011;5677;48.488;13.436;2023-02-28T06:14:20;4.90;;;3.70;;
11238;SDS011;5677;48.488;13.436;2023-02-28T06:16:47;4.93;;;3.50;;
11238;SDS011;5677;48.488;13.436;2023-02-28T06:19:14;3.70;;;2.97;;
11238;SDS011;5677;48.488;13.436;2023-02-28T06:21:41;5.97;;;3.13;;
11238;SDS011;5677;48.488;13.436;2023-02-28T06:24:10;6.33;;;3.03;;
11238;SDS011;5677;48.488;13.436;2023-02-28T06:26:37;4.50;;;2.90;;
11238;SDS011;5677;48.488;13.436;2023-02-28T06:29:04;4.37;;;2.97;;
11238;SDS011;5677;48.488;13.436;2023-02-28T06:31:31;4.10;;;3.10;;
11238;SDS011;5677;48.488;13.436;2023-02-28T06:33:57;5.60;;;3.07;;
11238;SDS011;5677;48.488;13.436;2023-02-28T06:36:24;5.57;;;2.97;;
11238;SDS011;5677;48.488;13.436;2023-02-28T06:38:51;4.77;;;2.90;;
11238;SDS011;5677;48.488;13.436;2023-02-28T06:41:22;5.37;;;3.43;;
11238;SDS011;5677;48.488;13.436;2023-02-28T06:43:50;6.23;;;3.87;;
11238;SDS011;5677;48.488;13.436;2023-02-28T06:46:17;7.27;;;4.20;;
11238;SDS011;5677;48.488;13.436;2023-02-28T06:48:44;10.00;;;3.90;;
11238;SDS011;5677;48.488;13.436;2023-02-28T06:51:12;8.43;;;4.30;;
11238;SDS011;5677;48.488;13.436;2023-02-28T06:53:40;11.50;;;5.40;;
11238;SDS011;5677;48.488;13.436;2023-02-28T06:56:08;10.83;;;4.33;;
11238;SDS011;5677;48.488;13.436;2023-02-28T06:58:37;8.50;;;5.17;;
11238;SDS011;5677;48.488;13.436;2023-02-28T07:01:05;6.70;;;5.37;;
11238;SDS011;5677;48.488;13.436;2023-02-28T07:03:34;10.13;;;5.37;;
11238;SDS011;5677;48.488;13.436;2023-02-28T07:06:01;8.53;;;5.20;;
11238;SDS011;5677;48.488;13.436;2023-02-28T07:08:29;6.20;;;4.63;;
11238;SDS011;5677;48.488;13.436;2023-02-28T07:10:56;12.70;;;4.63;;
11238;SDS011;5677;48.488;13.436;2023-02-28T07:13:24;6.00;;;4.40;;
11238;SDS011;5677;48.488;13.436;2023-02-28T07:15:56;7.20;;;4.47;;
11238;SDS011;5677;48.488;13.436;2023-02-28T07:18:24;6.77;;;3.90;;
11238;SDS011;5677;48.488;13.436;2023-02-28T07:20:51;6.07;;;4.00;;
11238;SDS011;5677;48.488;13.436;2023-02-28T07:23:18;8.90;;;4.30;;
11238;SDS011;5677;48.488;13.436;2023-02-28T07:25:46;7.63;;;4.23;;
11238;SDS011;5677;48.488;13.436;2023-02-28T07:28:13;5.43;;;4.10;;
11238;SDS011;5677;48.488;13.436;2023-02-28T07:30:40;6.87;;;4.10;;
11238;SDS011;5677;48.488;13.436;2023-02-28T07:33:09;7.90;;;4.67;;
11238;SDS011;5677;48.488;13.436;2023-02-28T07:35:36;5.33;;;3.90;;
11238;SDS011;5677;48.488;13.436;2023-02-28T07:38:03;5.47;;;3.47;;
11238;SDS011;5677;48.488;13.436;2023-02-28T07:40:29;5.53;;;3.60;;
11238;SDS011;5677;48.488;13.436;2023-02-28T07:42:56;5.40;;;3.93;;
11238;SDS011;5677;48.488;13.436;2023-02-28T07:45:25;4.53;;;3.67;;
11238;SDS011;5677;48.488;13.436;2023-02-28T07:47:52;7.50;;;3.70;;
11238;SDS011;5677;48.488;13.436;2023-02-28T07:50:20;5.43;;;3.30;;
11238;SDS011;5677;48.488;13.436;2023-02-28T07:52:48;5.30;;;3.27;;
11238;SDS011;5677;48.488;13.436;2023-02-28T07:55:14;4.63;;;3.47;;
11238;SDS011;5677;48.488;13.436;2023-02-28T07:57:41;3.83;;;3.03;;
11238;SDS011;5677;48.488;13.436;2023-02-28T08:00:09;7.13;;;4.00;;
11238;SDS011;5677;48.488;13.436;2023-02-28T08:02:38;8.70;;;3.90;;
11238;SDS011;5677;48.488;13.436;2023-02-28T08:05:06;6.77;;;3.50;;
11238;SDS011;5677;48.488;13.436;2023-02-28T08:07:34;4.20;;;3.43;;
11238;SDS011;5677;48.488;13.436;2023-02-28T08:10:01;5.17;;;3.70;;
11238;SDS011;5677;48.488;13.436;2023-02-28T08:12:30;6.03;;;3.70;;
11238;SDS011;5677;48.488;13.436;2023-02-28T08:14:57;4.30;;;3.20;;
11238;SDS011;5677;48.488;13.436;2023-02-28T08:17:24;4.70;;;3.40;;
11238;SDS011;5677;48.488;13.436;2023-02-28T08:19:51;6.37;;;3.10;;
11238;SDS011;5677;48.488;13.436;2023-02-28T08:22:18;4.43;;;3.37;;
11238;SDS011;5677;48.488;13.436;2023-02-28T08:24:46;4.10;;;3.33;;
11238;SDS011;5677;48.488;13.436;2023-02-28T08:27:12;4.33;;;3.10;;
11238;SDS011;5677;48.488;13.436;2023-02-28T08:29:39;3.67;;;3.30;;
11238;SDS011;5677;48.488;13.436;2023-02-28T08:32:06;4.87;;;3.60;;
11238;SDS011;5677;48.488;13.436;2023-02-28T08:34:33;4.33;;;3.37;;
11238;SDS011;5677;48.488;13.436;2023-02-28T08:37:00;5.53;;;3.30;;
11238;SDS011;5677;48.488;13.436;2023-02-28T08:39:27;4.30;;;3.20;;
11238;SDS011;5677;48.488;13.436;2023-02-28T08:41:55;6.00;;;3.30;;
11238;SDS011;5677;48.488;13.436;2023-02-28T08:44:21;7.43;;;4.60;;
11238;SDS011;5677;48.488;13.436;2023-02-28T08:46:48;6.53;;;3.47;;
11238;SDS011;5677;48.488;13.436;2023-02-28T08:49:15;6.27;;;3.50;;
11238;SDS011;5677;48.488;13.436;2023-02-28T08:51:41;12.33;;;4.57;;
11238;SDS011;5677;48.488;13.436;2023-02-28T08:54:08;10.77;;;4.80;;
11238;SDS011;5677;48.488;13.436;2023-02-28T08:56:37;9.93;;;5.30;;
11238;SDS011;5677;48.488;13.436;2023-02-28T08:59:06;7.53;;;4.93;;
11238;SDS011;5677;48.488;13.436;2023-02-28T09:01:35;7.53;;;4.70;;
11238;SDS011;5677;48.488;13.436;2023-02-28T09:04:02;6.80;;;4.97;;
11238;SDS011;5677;48.488;13.436;2023-02-28T09:06:29;7.97;;;5.37;;
11238;SDS011;5677;48.488;13.436;2023-02-28T09:08:56;6.97;;;4.50;;
11238;SDS011;5677;48.488;13.436;2023-02-28T09:11:24;7.33;;;5.00;;
11238;SDS011;5677;48.488;13.436;2023-02-28T09:13:51;6.87;;;5.07;;
11238;SDS011;5677;48.488;13.436;2023-02-28T09:16:19;8.77;;;6.03;;
11238;SDS011;5677;48.488;13.436;2023-02-28T09:18:46;6.43;;;5.17;;
11238;SDS011;5677;48.488;13.436;2023-02-28T09:21:14;6.83;;;5.27;;
11238;SDS011;5677;48.488;13.436;2023-02-28T09:23:43;7.93;;;5.40;;
11238;SDS011;5677;48.488;13.436;2023-02-28T09:26:12;9.13;;;6.07;;
11238;SDS011;5677;48.488;13.436;2023-02-28T09:28:40;13.10;;;6.97;;
11238;SDS011;5677;48.488;13.436;2023-02-28T09:31:10;10.90;;;6.20;;
11238;SDS011;5677;48.488;13.436;2023-02-28T09:33:40;13.57;;;6.70;;
11238;SDS011;5677;48.488;13.436;2023-02-28T09:36:07;16.77;;;7.60;;
11238;SDS011;5677;48.488;13.436;2023-02-28T09:38:34;14.13;;;7.17;;
11238;SDS011;5677;48.488;13.436;2023-02-28T09:41:03;16.40;;;7.37;;
11238;SDS011;5677;48.488;13.436;2023-02-28T09:43:37;18.97;;;7.57;;
11238;SDS011;5677;48.488;13.436;2023-02-28T09:46:08;12.43;;;7.80;;
11238;SDS011;5677;48.488;13.436;2023-02-28T09:48:45;14.73;;;7.57;;
11238;SDS011;5677;48.488;13.436;2023-02-28T09:51:15;13.33;;;7.57;;
11238;SDS011;5677;48.488;13.436;2023-02-28T09:53:56;11.23;;;7.70;;
11238;SDS011;5677;48.488;13.436;2023-02-28T09:56:24;12.07;;;7.77;;
11238;SDS011;5677;48.488;13.436;2023-02-28T09:58:55;16.33;;;8.50;;
11238;SDS011;5677;48.488;13.436;2023-02-28T10:01:25;12.97;;;8.03;;
11238;SDS011;5677;48.488;13.436;2023-02-28T10:03:58;15.57;;;7.47;;
11238;SDS011;5677;48.488;13.436;2023-02-28T10:06:29;12.10;;;7.47;;
11238;SDS011;5677;48.488;13.436;2023-02-28T10:09:01;12.63;;;7.97;;
11238;SDS011;5677;48.488;13.436;2023-02-28T10:11:30;13.30;;;7.43;;
11238;SDS011;5677;48.488;13.436;2023-02-28T10:14:02;12.57;;;7.47;;
11238;SDS011;5677;48.488;13.436;2023-02-28T10:16:34;11.60;;;7.40;;
11238;SDS011;5677;48.488;13.436;2023-02-28T10:19:05;10.87;;;7.07;;
11238;SDS011;5677;48.488;13.436;2023-02-28T10:21:38;12.03;;;7.10;;
11238;SDS011;5677;48.488;13.436;2023-02-28T10:24:12;13.30;;;6.67;;
11238;SDS011;5677;48.488;13.436;2023-02-28T10:26:46;10.90;;;6.80;;
11238;SDS011;5677;48.488;13.436;2023-02-28T10:29:14;10.43;;;6.77;;
11238;SDS011;5677;48.488;13.436;2023-02-28T10:31:41;16.57;;;9.17;;
11238;SDS011;5677;48.488;13.436;2023-02-28T10:34:10;14.43;;;8.03;;
11238;SDS011;5677;48.488;13.436;2023-02-28T10:36:38;12.00;;;6.93;;
11238;SDS011;5677;48.488;13.436;2023-02-28T10:42:17;10.40;;;6.40;;
11238;SDS011;5677;48.488;13.436;2023-02-28T10:44:46;11.27;;;6.87;;
11238;SDS011;5677;48.488;13.436;2023-02-28T10:47:14;11.33;;;7.10;;
11238;SDS011;5677;48.488;13.436;2023-02-28T10:49:48;10.57;;;6.93;;
11238;SDS011;5677;48.488;13.436;2023-02-28T10:52:32;12.50;;;7.53;;
11238;SDS011;5677;48.488;13.436;2023-02-28T10:55:13;12.03;;;6.77;;
11238;SDS011;5677;48.488;13.436;2023-02-28T10:57:42;11.97;;;7.33;;
11238;SDS011;5677;48.488;13.436;2023-02-28T11:00:12;13.13;;;7.37;;
11238;SDS011;5677;48.488;13.436;2023-02-28T11:02:41;16.23;;;8.30;;
11238;SDS011;5677;48.488;13.436;2023-02-28T11:08:02;16.40;;;8.33;;
11238;SDS011;5677;48.488;13.436;2023-02-28T11:10:32;16.33;;;8.00;;
11238;SDS011;5677;48.488;13.436;2023-02-28T11:13:00;14.73;;;8.33;;
11238;SDS011;5677;48.488;13.436;2023-02-28T11:15:29;13.13;;;8.73;;
11238;SDS011;5677;48.488;13.436;2023-02-28T11:17:57;14.07;;;8.63;;
11238;SDS011;5677;48.488;13.436;2023-02-28T11:20:26;17.40;;;9.27;;
11238;SDS011;5677;48.488;13.436;2023-02-28T11:22:57;14.37;;;8.90;;
11238;SDS011;5677;48.488;13.436;2023-02-28T11:25:26;12.60;;;8.40;;
11238;SDS011;5677;48.488;13.436;2023-02-28T11:27:56;13.53;;;8.50;;
11238;SDS011;5677;48.488;13.436;2023-02-28T11:30:30;13.87;;;9.27;;
11238;SDS011;5677;48.488;13.436;2023-02-28T11:33:13;17.07;;;9.77;;
11238;SDS011;5677;48.488;13.436;2023-02-28T11:35:47;14.83;;;10.47;;
11238;SDS011;5677;48.488;13.436;2023-02-28T11:38:17;18.00;;;9.97;;
11238;SDS011;5677;48.488;13.436;2023-02-28T11:40:46;15.00;;;9.90;;
11238;SDS011;5677;48.488;13.436;2023-02-28T11:43:26;17.03;;;9.20;;
11238;SDS011;5677;48.488;13.436;2023-02-28T11:46:05;15.77;;;8.93;;
11238;SDS011;5677;48.488;13.436;2023-02-28T11:48:41;13.13;;;8.73;;
11238;SDS011;5677;48.488;13.436;2023-02-28T11:51:15;14.70;;;9.37;;
11238;SDS011;5677;48.488;13.436;2023-02-28T11:53:55;14.33;;;9.03;;
11238;SDS011;5677;48.488;13.436;2023-02-28T11:56:48;13.53;;;8.67;;
11238;SDS011;5677;48.488;13.436;2023-02-28T11:59:30;15.30;;;9.70;;
11238;SDS011;5677;48.488;13.436;2023-02-28T12:02:22;14.37;;;8.37;;
11238;SDS011;5677;48.488;13.436;2023-02-28T12:04:52;11.13;;;7.73;;
11238;SDS011;5677;48.488;13.436;2023-02-28T12:07:31;13.97;;;8.53;;
11238;SDS011;5677;48.488;13.436;2023-02-28T12:10:10;14.83;;;9.20;;
11238;SDS011;5677;48.488;13.436;2023-02-28T12:12:47;12.97;;;8.17;;
11238;SDS011;5677;48.488;13.436;2023-02-28T12:15:25;13.57;;;8.97;;
11238;SDS011;5677;48.488;13.436;2023-02-28T12:18:13;14.47;;;8.13;;
11238;SDS011;5677;48.488;13.436;2023-02-28T12:21:04;13.50;;;8.90;;
11238;SDS011;5677;48.488;13.436;2023-02-28T12:23:47;13.50;;;8.30;;
11238;SDS011;5677;48.488;13.436;2023-02-28T12:26:26;14.13;;;8.60;;
11238;SDS011;5677;48.488;13.436;2023-02-28T12:29:02;12.17;;;8.20;;
11238;SDS011;5677;48.488;13.436;2023-02-28T12:31:37;14.23;;;8.70;;
11238;SDS011;5677;48.488;13.436;2023-02-28T12:34:09;14.47;;;8.53;;
11238;SDS011;5677;48.488;13.436;2023-02-28T12:36:39;10.13;;;7.80;;
11238;SDS011;5677;48.488;13.436;2023-02-28T12:39:10;14.93;;;8.67;;
11238;SDS011;5677;48.488;13.436;2023-02-28T12:41:43;11.50;;;7.83;;
11238;SDS011;5677;48.488;13.436;2023-02-28T12:44:28;13.47;;;7.70;;
11238;SDS011;5677;48.488;13.436;2023-02-28T12:46:59;11.83;;;7.37;;
11238;SDS011;5677;48.488;13.436;2023-02-28T12:49:31;14.90;;;7.43;;
11238;SDS011;5677;48.488;13.436;2023-02-28T12:52:00;11.00;;;7.77;;
11238;SDS011;5677;48.488;13.436;2023-02-28T12:54:29;10.70;;;7.77;;
11238;SDS011;5677;48.488;13.436;2023-02-28T12:57:05;10.50;;;7.57;;
11238;SDS011;5677;48.488;13.436;2023-02-28T12:59:39;10.43;;;7.93;;
11238;SDS011;5677;48.488;13.436;2023-02-28T13:08:41;9.97;;;6.60;;
11238;SDS011;5677;48.488;13.436;2023-02-28T13:11:29;8.93;;;6.60;;
11238;SDS011;5677;48.488;13.436;2023-02-28T13:14:01;12.30;;;7.10;;
11238;SDS011;5677;48.488;13.436;2023-02-28T13:19:25;8.13;;;6.33;;
11238;SDS011;5677;48.488;13.436;2023-02-28T13:21:54;10.07;;;6.37;;
11238;SDS011;5677;48.488;13.436;2023-02-28T13:30:49;7.63;;;6.20;;
11238;SDS011;5677;48.488;13.436;2023-02-28T13:33:22;9.73;;;6.63;;
11238;SDS011;5677;48.488;13.436;2023-02-28T13:36:01;8.57;;;7.10;;
11238;SDS011;5677;48.488;13.436;2023-02-28T13:38:35;8.87;;;6.50;;
11238;SDS011;5677;48.488;13.436;2023-02-28T13:44:13;8.80;;;6.63;;
11238;SDS011;5677;48.488;13.436;2023-02-28T13:49:49;9.47;;;6.67;;
11238;SDS011;5677;48.488;13.436;2023-02-28T13:52:18;7.37;;;6.10;;
11238;SDS011;5677;48.488;13.436;2023-02-28T13:54:55;8.60;;;6.47;;
11238;SDS011;5677;48.488;13.436;2023-02-28T13:57:42;8.43;;;6.47;;
11238;SDS011;5677;48.488;13.436;2023-02-28T14:00:22;10.40;;;7.40;;
11238;SDS011;5677;48.488;13.436;2023-02-28T14:03:07;7.80;;;6.23;;
11238;SDS011;5677;48.488;13.436;2023-02-28T14:05:44;7.23;;;5.50;;
11238;SDS011;5677;48.488;13.436;2023-02-28T14:08:13;14.03;;;7.67;;
11238;SDS011;5677;48.488;13.436;2023-02-28T14:10:43;10.37;;;7.03;;
11238;SDS011;5677;48.488;13.436;2023-02-28T14:13:13;10.50;;;6.83;;
11238;SDS011;5677;48.488;13.436;2023-02-28T14:15:59;15.73;;;7.20;;
11238;SDS011;5677;48.488;13.436;2023-02-28T14:18:32;10.90;;;7.37;;
11238;SDS011;5677;48.488;13.436;2023-02-28T14:21:01;13.30;;;6.57;;
11238;SDS011;5677;48.488;13.436;2023-02-28T14:23:58;11.33;;;6.33;;
11238;SDS011;5677;48.488;13.436;2023-02-28T14:26:58;12.37;;;6.40;;
11238;SDS011;5677;48.488;13.436;2023-02-28T14:29:43;8.50;;;4.67;;
11238;SDS011;5677;48.488;13.436;2023-02-28T14:32:31;9.37;;;4.73;;
11238;SDS011;5677;48.488;13.436;2023-02-28T14:35:05;7.53;;;5.50;;
11238;SDS011;5677;48.488;13.436;2023-02-28T14:37:46;7.73;;;5.40;;
11238;SDS011;5677;48.488;13.436;2023-02-28T14:40:15;10.07;;;5.33;;
11238;SDS011;5677;48.488;13.436;2023-02-28T14:42:46;6.23;;;5.20;;
11238;SDS011;5677;48.488;13.436;2023-02-28T14:45:20;14.57;;;5.80;;
11238;SDS011;5677;48.488;13.436;2023-02-28T14:47:48;13.83;;;5.90;;
11238;SDS011;5677;48.488;13.436;2023-02-28T14:50:21;13.20;;;6.23;;
11238;SDS011;5677;48.488;13.436;2023-02-28T14:52:51;9.50;;;5.67;;
11238;SDS011;5677;48.488;13.436;2023-02-28T14:55:20;12.20;;;5.50;;
11238;SDS011;5677;48.488;13.436;2023-02-28T14:57:53;14.73;;;6.10;;
11238;SDS011;5677;48.488;13.436;2023-02-28T15:00:22;10.43;;;5.17;;
11238;SDS011;5677;48.488;13.436;2023-02-28T15:02:50;8.93;;;5.03;;
11238;SDS011;5677;48.488;13.436;2023-02-28T15:05:26;8.17;;;4.80;;
11238;SDS011;5677;48.488;13.436;2023-02-28T15:08:02;10.57;;;6.87;;
11238;SDS011;5677;48.488;13.436;2023-02-28T15:10:30;10.60;;;6.87;;
11238;SDS011;5677;48.488;13.436;2023-02-28T15:12:59;13.87;;;5.83;;
11238;SDS011;5677;48.488;13.436;2023-02-28T15:15:28;10.17;;;6.07;;
11238;SDS011;5677;48.488;13.436;2023-02-28T15:18:14;11.00;;;5.60;;
11238;SDS011;5677;48.488;13.436;2023-02-28T15:20:48;12.17;;;5.57;;
11238;SDS011;5677;48.488;13.436;2023-02-28T15:23:16;10.70;;;6.10;;
11238;SDS011;5677;48.488;13.436;2023-02-28T15:25:44;13.27;;;5.27;;
11238;SDS011;5677;48.488;13.436;2023-02-28T15:28:13;12.87;;;5.67;;
11238;SDS011;5677;48.488;13.436;2023-02-28T15:30:50;9.40;;;5.40;;
11238;SDS011;5677;48.488;13.436;2023-02-28T15:33:19;9.63;;;5.40;;